sensor_id;sensor_type;location;lat;lon;timestamp;pressure;altitude;pressure_sealevel;temperature;humidity
64292;BME280;50628;51.008;13.658;2023-12-28T00:01:42;99503.66;;;2.79;100.00
64292;BME280;50628;51.008;13.658;2023-12-28T00:06:44;99506.34;;;2.77;100.00
64292;BME280;50628;51.008;13.658;2023-12-28T00:11:47;99490.91;;;2.77;100.00
64292;BME280;50628;51.008;13.658;2023-12-28T00:16:49;99470.03;;;2.99;100.00
64292;BME280;50628;51.008;13.658;2023-12-28T00:21:51;99474.22;;;2.85;100.00
64292;BME280;50628;51.008;13.658;2023-12-28T00:26:54;99463.53;;;2.76;100.00
64292;BME280;50628;51.008;13.658;2023-12-28T00:31:56;99451.19;;;3.15;100.00
64292;BME280;50628;51.008;13.658;2023-12-28T00:36:58;99423.38;;;3.67;100.00
64292;BME280;50628;51.008;13.658;2023-12-28T00:42:01;99429.50;;;3.81;100.00
64292;BME280;50628;51.008;13.658;2023-12-28T00:47:03;99417.09;;;3.87;100.00
64292;BME280;50628;51.008;13.658;2023-12-28T00:52:07;99426.47;;;3.88;100.00
64292;BME280;50628;51.008;13.658;2023-12-28T00:57:10;99403.97;;;4.35;100.00
64292;BME280;50628;51.008;13.658;2023-12-28T01:02:12;99395.41;;;6.23;100.00
64292;BME280;50628;51.008;13.658;2023-12-28T01:07:14;99399.22;;;7.98;100.00
64292;BME280;50628;51.008;13.658;2023-12-28T01:12:17;99386.91;;;8.70;100.00
64292;BME280;50628;51.008;13.658;2023-12-28T01:17:19;99402.44;;;8.92;100.00
64292;BME280;50628;51.008;13.658;2023-12-28T01:22:21;99404.03;;;9.16;100.00
64292;BME280;50628;51.008;13.658;2023-12-28T01:27:24;99408.44;;;9.36;100.00
64292;BME280;50628;51.008;13.658;2023-12-28T01:32:26;99419.97;;;9.43;100.00
64292;BME280;50628;51.008;13.658;2023-12-28T01:37:28;99418.66;;;9.49;100.00
64292;BME280;50628;51.008;13.658;2023-12-28T01:42:33;99409.53;;;9.54;100.00
64292;BME280;50628;51.008;13.658;2023-12-28T01:47:36;99395.53;;;9.67;99.64
64292;BME280;50628;51.008;13.658;2023-12-28T01:52:38;99398.00;;;9.68;98.06
64292;BME280;50628;51.008;13.658;2023-12-28T01:57:41;99390.22;;;9.68;96.49
64292;BME280;50628;51.008;13.658;2023-12-28T02:02:44;99383.16;;;9.80;94.61
64292;BME280;50628;51.008;13.658;2023-12-28T02:07:47;99379.25;;;9.86;90.64
64292;BME280;50628;51.008;13.658;2023-12-28T02:12:50;99367.06;;;9.86;89.33
64292;BME280;50628;51.008;13.658;2023-12-28T02:17:58;99349.09;;;10.04;85.23
64292;BME280;50628;51.008;13.658;2023-12-28T02:23:03;99357.53;;;9.96;85.85
64292;BME280;50628;51.008;13.658;2023-12-28T02:28:08;99374.78;;;9.97;84.90
64292;BME280;50628;51.008;13.658;2023-12-28T02:33:15;99369.91;;;10.04;81.13
64292;BME280;50628;51.008;13.658;2023-12-28T02:38:19;99372.44;;;10.15;80.11
64292;BME280;50628;51.008;13.658;2023-12-28T02:43:24;99366.44;;;10.55;72.19
64292;BME280;50628;51.008;13.658;2023-12-28T02:48:26;99364.50;;;10.48;72.85
64292;BME280;50628;51.008;13.658;2023-12-28T02:53:28;99367.50;;;10.53;71.05
64292;BME280;50628;51.008;13.658;2023-12-28T02:58:31;99363.44;;;10.60;69.47
64292;BME280;50628;51.008;13.658;2023-12-28T03:03:33;99339.19;;;10.59;68.54
64292;BME280;50628;51.008;13.658;2023-12-28T03:08:35;99351.09;;;10.52;69.44
64292;BME280;50628;51.008;13.658;2023-12-28T03:13:38;99354.03;;;10.38;71.98
64292;BME280;50628;51.008;13.658;2023-12-28T03:18:40;99340.06;;;10.29;73.32
64292;BME280;50628;51.008;13.658;2023-12-28T03:23:43;99352.34;;;10.27;75.07
64292;BME280;50628;51.008;13.658;2023-12-28T03:28:46;99367.66;;;10.21;76.29
64292;BME280;50628;51.008;13.658;2023-12-28T03:33:48;99386.19;;;10.06;77.72
64292;BME280;50628;51.008;13.658;2023-12-28T03:38:49;99419.63;;;10.11;76.78
64292;BME280;50628;51.008;13.658;2023-12-28T03:43:53;99434.78;;;10.06;77.74
64292;BME280;50628;51.008;13.658;2023-12-28T03:48:55;99424.56;;;10.14;75.53
64292;BME280;50628;51.008;13.658;2023-12-28T03:53:57;99417.84;;;10.11;77.22
64292;BME280;50628;51.008;13.658;2023-12-28T03:59:00;99425.25;;;9.95;81.36
64292;BME280;50628;51.008;13.658;2023-12-28T04:04:02;99429.19;;;9.89;84.02
64292;BME280;50628;51.008;13.658;2023-12-28T04:09:05;99408.09;;;9.83;85.76
64292;BME280;50628;51.008;13.658;2023-12-28T04:14:08;99416.03;;;9.81;86.45
64292;BME280;50628;51.008;13.658;2023-12-28T04:19:10;99403.03;;;9.81;86.94
64292;BME280;50628;51.008;13.658;2023-12-28T04:24:11;99401.41;;;9.90;87.63
64292;BME280;50628;51.008;13.658;2023-12-28T04:29:15;99391.91;;;10.00;86.67
64292;BME280;50628;51.008;13.658;2023-12-28T04:34:17;99372.44;;;10.15;84.88
64292;BME280;50628;51.008;13.658;2023-12-28T04:39:19;99368.91;;;10.26;85.57
64292;BME280;50628;51.008;13.658;2023-12-28T04:44:22;99379.63;;;10.33;86.17
64292;BME280;50628;51.008;13.658;2023-12-28T04:49:24;99366.22;;;10.37;89.27
64292;BME280;50628;51.008;13.658;2023-12-28T04:54:25;99363.31;;;10.61;86.90
64292;BME280;50628;51.008;13.658;2023-12-28T04:59:29;99356.88;;;10.66;89.09
64292;BME280;50628;51.008;13.658;2023-12-28T05:04:31;99371.28;;;10.79;89.07
64292;BME280;50628;51.008;13.658;2023-12-28T05:09:33;99361.72;;;10.90;90.59
64292;BME280;50628;51.008;13.658;2023-12-28T05:14:37;99377.34;;;10.90;93.57
64292;BME280;50628;51.008;13.658;2023-12-28T05:19:38;99379.38;;;10.96;99.32
64292;BME280;50628;51.008;13.658;2023-12-28T05:24:40;99399.69;;;10.92;100.00
64292;BME280;50628;51.008;13.658;2023-12-28T05:29:43;99432.75;;;11.01;100.00
64292;BME280;50628;51.008;13.658;2023-12-28T05:34:45;99413.50;;;10.93;100.00
64292;BME280;50628;51.008;13.658;2023-12-28T05:39:48;99422.03;;;10.95;100.00
64292;BME280;50628;51.008;13.658;2023-12-28T05:44:51;99435.22;;;11.13;100.00
64292;BME280;50628;51.008;13.658;2023-12-28T05:49:53;99458.91;;;11.00;100.00
64292;BME280;50628;51.008;13.658;2023-12-28T05:54:55;99440.84;;;11.27;100.00
64292;BME280;50628;51.008;13.658;2023-12-28T05:59:58;99444.25;;;11.18;100.00
64292;BME280;50628;51.008;13.658;2023-12-28T06:05:00;99456.19;;;11.21;100.00
64292;BME280;50628;51.008;13.658;2023-12-28T06:10:02;99484.03;;;11.20;100.00
64292;BME280;50628;51.008;13.658;2023-12-28T06:15:07;99494.44;;;11.20;100.00
64292;BME280;50628;51.008;13.658;2023-12-28T06:20:10;99490.91;;;11.21;100.00
64292;BME280;50628;51.008;13.658;2023-12-28T06:25:12;99505.13;;;11.08;100.00
64292;BME280;50628;51.008;13.658;2023-12-28T06:30:15;99520.03;;;11.05;100.00
64292;BME280;50628;51.008;13.658;2023-12-28T06:35:17;99504.53;;;10.94;100.00
64292;BME280;50628;51.008;13.658;2023-12-28T06:40:19;99543.88;;;11.01;100.00
64292;BME280;50628;51.008;13.658;2023-12-28T06:45:22;99525.09;;;10.97;100.00
64292;BME280;50628;51.008;13.658;2023-12-28T06:50:28;99517.25;;;10.88;100.00
64292;BME280;50628;51.008;13.658;2023-12-28T06:55:30;99499.94;;;10.77;100.00
64292;BME280;50628;51.008;13.658;2023-12-28T07:00:33;99502.41;;;10.78;100.00
64292;BME280;50628;51.008;13.658;2023-12-28T07:05:35;99507.38;;;10.81;100.00
64292;BME280;50628;51.008;13.658;2023-12-28T07:10:37;99488.94;;;10.73;100.00
64292;BME280;50628;51.008;13.658;2023-12-28T07:15:40;99540.34;;;10.71;100.00
64292;BME280;50628;51.008;13.658;2023-12-28T07:20:42;99551.19;;;10.76;100.00
64292;BME280;50628;51.008;13.658;2023-12-28T07:25:44;99559.50;;;10.70;100.00
64292;BME280;50628;51.008;13.658;2023-12-28T07:30:47;99531.94;;;10.68;100.00
64292;BME280;50628;51.008;13.658;2023-12-28T07:35:49;99526.69;;;10.58;100.00
64292;BME280;50628;51.008;13.658;2023-12-28T07:40:51;99510.19;;;10.48;100.00
64292;BME280;50628;51.008;13.658;2023-12-28T07:45:54;99490.03;;;10.40;100.00
64292;BME280;50628;51.008;13.658;2023-12-28T07:50:56;99517.94;;;10.38;100.00
64292;BME280;50628;51.008;13.658;2023-12-28T07:55:58;99506.34;;;10.42;100.00
64292;BME280;50628;51.008;13.658;2023-12-28T08:01:01;99504.44;;;10.44;100.00
64292;BME280;50628;51.008;13.658;2023-12-28T08:06:04;99505.25;;;10.45;100.00
64292;BME280;50628;51.008;13.658;2023-12-28T08:11:05;99520.16;;;10.43;100.00
64292;BME280;50628;51.008;13.658;2023-12-28T08:16:09;99540.28;;;10.40;100.00
64292;BME280;50628;51.008;13.658;2023-12-28T08:21:11;99534.69;;;10.45;100.00
64292;BME280;50628;51.008;13.658;2023-12-28T08:26:12;99541.13;;;10.41;100.00
64292;BME280;50628;51.008;13.658;2023-12-28T08:31:16;99550.00;;;10.38;100.00
64292;BME280;50628;51.008;13.658;2023-12-28T08:36:18;99553.06;;;10.44;100.00
64292;BME280;50628;51.008;13.658;2023-12-28T08:41:20;99558.94;;;10.46;100.00
64292;BME280;50628;51.008;13.658;2023-12-28T08:46:23;99574.53;;;10.46;100.00
64292;BME280;50628;51.008;13.658;2023-12-28T08:51:26;99575.63;;;10.43;100.00
64292;BME280;50628;51.008;13.658;2023-12-28T08:56:28;99577.84;;;10.48;100.00
64292;BME280;50628;51.008;13.658;2023-12-28T09:01:32;99570.41;;;10.43;100.00
64292;BME280;50628;51.008;13.658;2023-12-28T09:06:34;99559.78;;;10.46;100.00
64292;BME280;50628;51.008;13.658;2023-12-28T09:11:36;99563.25;;;10.35;100.00
64292;BME280;50628;51.008;13.658;2023-12-28T09:16:39;99554.00;;;10.43;100.00
64292;BME280;50628;51.008;13.658;2023-12-28T09:21:42;99560.00;;;10.43;100.00
64292;BME280;50628;51.008;13.658;2023-12-28T09:26:44;99567.31;;;10.49;100.00
64292;BME280;50628;51.008;13.658;2023-12-28T09:31:47;99571.94;;;10.46;100.00
64292;BME280;50628;51.008;13.658;2023-12-28T09:36:49;99571.19;;;10.55;100.00
64292;BME280;50628;51.008;13.658;2023-12-28T09:41:55;99572.16;;;10.54;100.00
64292;BME280;50628;51.008;13.658;2023-12-28T09:47:03;99568.47;;;10.56;100.00
64292;BME280;50628;51.008;13.658;2023-12-28T09:52:07;99572.34;;;10.62;100.00
64292;BME280;50628;51.008;13.658;2023-12-28T09:57:09;99582.47;;;10.65;100.00
64292;BME280;50628;51.008;13.658;2023-12-28T10:02:14;99582.63;;;10.64;100.00
64292;BME280;50628;51.008;13.658;2023-12-28T10:07:17;99581.78;;;10.63;100.00
64292;BME280;50628;51.008;13.658;2023-12-28T10:12:20;99579.06;;;10.65;100.00
64292;BME280;50628;51.008;13.658;2023-12-28T10:17:23;99577.34;;;10.54;100.00
64292;BME280;50628;51.008;13.658;2023-12-28T10:22:25;99581.88;;;10.52;100.00
64292;BME280;50628;51.008;13.658;2023-12-28T10:27:27;99587.63;;;10.55;100.00
64292;BME280;50628;51.008;13.658;2023-12-28T10:32:30;99579.97;;;10.54;100.00
64292;BME280;50628;51.008;13.658;2023-12-28T10:37:32;99580.91;;;10.53;100.00
64292;BME280;50628;51.008;13.658;2023-12-28T10:42:42;99581.59;;;10.55;100.00
64292;BME280;50628;51.008;13.658;2023-12-28T10:47:55;99581.88;;;10.52;100.00
64292;BME280;50628;51.008;13.658;2023-12-28T10:53:06;99570.75;;;10.50;100.00
64292;BME280;50628;51.008;13.658;2023-12-28T10:58:10;99577.47;;;10.52;100.00
64292;BME280;50628;51.008;13.658;2023-12-28T11:03:18;99573.22;;;10.51;100.00
64292;BME280;50628;51.008;13.658;2023-12-28T11:08:24;99560.78;;;10.55;100.00
64292;BME280;50628;51.008;13.658;2023-12-28T11:13:28;99557.34;;;10.54;100.00
64292;BME280;50628;51.008;13.658;2023-12-28T11:18:32;99563.13;;;10.58;100.00
64292;BME280;50628;51.008;13.658;2023-12-28T11:23:34;99546.31;;;10.62;100.00
64292;BME280;50628;51.008;13.658;2023-12-28T11:28:36;99549.34;;;10.67;100.00
64292;BME280;50628;51.008;13.658;2023-12-28T11:33:45;99537.78;;;10.60;100.00
64292;BME280;50628;51.008;13.658;2023-12-28T11:38:49;99552.06;;;10.66;100.00
64292;BME280;50628;51.008;13.658;2023-12-28T11:43:52;99550.31;;;10.66;100.00
64292;BME280;50628;51.008;13.658;2023-12-28T11:49:04;99557.28;;;10.66;100.00
64292;BME280;50628;51.008;13.658;2023-12-28T11:54:06;99545.94;;;10.67;100.00
64292;BME280;50628;51.008;13.658;2023-12-28T11:59:10;99547.94;;;10.84;100.00
64292;BME280;50628;51.008;13.658;2023-12-28T12:04:13;99543.84;;;10.91;100.00
64292;BME280;50628;51.008;13.658;2023-12-28T12:09:15;99551.66;;;10.91;100.00
64292;BME280;50628;51.008;13.658;2023-12-28T12:14:18;99558.56;;;11.02;100.00
64292;BME280;50628;51.008;13.658;2023-12-28T12:19:22;99562.69;;;11.04;100.00
64292;BME280;50628;51.008;13.658;2023-12-28T12:24:24;99563.06;;;11.00;100.00
64292;BME280;50628;51.008;13.658;2023-12-28T12:29:26;99558.72;;;11.10;100.00
64292;BME280;50628;51.008;13.658;2023-12-28T12:34:29;99549.38;;;11.08;100.00
64292;BME280;50628;51.008;13.658;2023-12-28T12:39:31;99562.31;;;10.88;100.00
64292;BME280;50628;51.008;13.658;2023-12-28T12:44:34;99552.94;;;10.76;100.00
64292;BME280;50628;51.008;13.658;2023-12-28T12:49:37;99537.19;;;10.77;100.00
64292;BME280;50628;51.008;13.658;2023-12-28T12:54:39;99522.56;;;10.76;100.00
64292;BME280;50628;51.008;13.658;2023-12-28T12:59:41;99551.13;;;10.97;100.00
64292;BME280;50628;51.008;13.658;2023-12-28T13:04:44;99558.69;;;11.00;100.00
64292;BME280;50628;51.008;13.658;2023-12-28T13:09:46;99557.09;;;11.09;100.00
64292;BME280;50628;51.008;13.658;2023-12-28T13:14:48;99556.88;;;10.91;100.00
64292;BME280;50628;51.008;13.658;2023-12-28T13:19:51;99557.88;;;11.00;100.00
64292;BME280;50628;51.008;13.658;2023-12-28T13:24:53;99556.03;;;11.31;100.00
64292;BME280;50628;51.008;13.658;2023-12-28T13:29:55;99541.94;;;11.43;100.00
64292;BME280;50628;51.008;13.658;2023-12-28T13:34:58;99560.28;;;12.02;100.00
64292;BME280;50628;51.008;13.658;2023-12-28T13:40:00;99550.94;;;12.28;100.00
64292;BME280;50628;51.008;13.658;2023-12-28T13:45:02;99556.91;;;12.77;100.00
64292;BME280;50628;51.008;13.658;2023-12-28T13:50:07;99556.31;;;12.84;100.00
64292;BME280;50628;51.008;13.658;2023-12-28T13:55:09;99547.84;;;13.09;100.00
64292;BME280;50628;51.008;13.658;2023-12-28T14:00:13;99558.88;;;13.03;100.00
64292;BME280;50628;51.008;13.658;2023-12-28T14:05:17;99554.09;;;13.26;100.00
64292;BME280;50628;51.008;13.658;2023-12-28T14:10:19;99552.41;;;12.60;100.00
64292;BME280;50628;51.008;13.658;2023-12-28T14:15:21;99561.97;;;12.79;100.00
64292;BME280;50628;51.008;13.658;2023-12-28T14:20:25;99556.31;;;12.84;100.00
64292;BME280;50628;51.008;13.658;2023-12-28T14:25:28;99562.56;;;11.66;100.00
64292;BME280;50628;51.008;13.658;2023-12-28T14:30:31;99555.75;;;10.84;100.00
64292;BME280;50628;51.008;13.658;2023-12-28T14:35:35;99548.53;;;10.67;100.00
64292;BME280;50628;51.008;13.658;2023-12-28T14:40:39;99548.72;;;10.33;100.00
64292;BME280;50628;51.008;13.658;2023-12-28T14:45:41;99544.56;;;10.09;100.00
64292;BME280;50628;51.008;13.658;2023-12-28T14:50:44;99550.00;;;9.85;100.00
64292;BME280;50628;51.008;13.658;2023-12-28T14:55:46;99538.44;;;9.78;100.00
64292;BME280;50628;51.008;13.658;2023-12-28T15:00:48;99536.38;;;9.61;100.00
64292;BME280;50628;51.008;13.658;2023-12-28T15:05:52;99547.47;;;9.51;100.00
64292;BME280;50628;51.008;13.658;2023-12-28T15:10:54;99542.66;;;9.36;100.00
64292;BME280;50628;51.008;13.658;2023-12-28T15:15:56;99541.25;;;9.31;100.00
64292;BME280;50628;51.008;13.658;2023-12-28T15:21:00;99544.81;;;9.19;100.00
64292;BME280;50628;51.008;13.658;2023-12-28T15:26:02;99544.13;;;9.06;100.00
64292;BME280;50628;51.008;13.658;2023-12-28T15:31:07;99548.38;;;8.84;100.00
64292;BME280;50628;51.008;13.658;2023-12-28T15:36:10;99543.75;;;8.54;100.00
64292;BME280;50628;51.008;13.658;2023-12-28T15:41:12;99537.84;;;8.52;100.00
64292;BME280;50628;51.008;13.658;2023-12-28T15:46:14;99521.09;;;8.21;100.00
64292;BME280;50628;51.008;13.658;2023-12-28T15:51:17;99520.84;;;8.13;100.00
64292;BME280;50628;51.008;13.658;2023-12-28T15:56:19;99520.06;;;8.23;100.00
64292;BME280;50628;51.008;13.658;2023-12-28T16:01:21;99519.00;;;8.26;100.00
64292;BME280;50628;51.008;13.658;2023-12-28T16:06:24;99517.84;;;8.30;100.00
64292;BME280;50628;51.008;13.658;2023-12-28T16:11:26;99515.72;;;8.24;100.00
64292;BME280;50628;51.008;13.658;2023-12-28T16:16:28;99533.88;;;8.24;100.00
64292;BME280;50628;51.008;13.658;2023-12-28T16:21:32;99538.75;;;8.16;100.00
64292;BME280;50628;51.008;13.658;2023-12-28T16:26:34;99535.78;;;7.74;100.00
64292;BME280;50628;51.008;13.658;2023-12-28T16:31:37;99530.19;;;7.43;100.00
64292;BME280;50628;51.008;13.658;2023-12-28T16:36:40;99531.19;;;7.29;100.00
64292;BME280;50628;51.008;13.658;2023-12-28T17:08:24;99523.00;;;6.86;100.00
64292;BME280;50628;51.008;13.658;2023-12-28T17:13:27;99533.16;;;6.63;100.00
64292;BME280;50628;51.008;13.658;2023-12-28T17:18:29;99528.69;;;6.91;100.00
64292;BME280;50628;51.008;13.658;2023-12-28T17:23:35;99528.19;;;7.23;100.00
64292;BME280;50628;51.008;13.658;2023-12-28T17:28:45;99534.22;;;7.47;100.00
64292;BME280;50628;51.008;13.658;2023-12-28T17:33:48;99529.66;;;7.51;100.00
64292;BME280;50628;51.008;13.658;2023-12-28T17:38:52;99538.13;;;7.53;100.00
64292;BME280;50628;51.008;13.658;2023-12-28T17:44:00;99538.47;;;7.48;100.00
64292;BME280;50628;51.008;13.658;2023-12-28T17:49:02;99543.81;;;7.34;100.00
64292;BME280;50628;51.008;13.658;2023-12-28T17:54:08;99535.34;;;7.19;100.00
64292;BME280;50628;51.008;13.658;2023-12-28T17:59:09;99539.06;;;7.15;100.00
64292;BME280;50628;51.008;13.658;2023-12-28T18:04:11;99549.22;;;7.18;100.00
64292;BME280;50628;51.008;13.658;2023-12-28T18:09:15;99545.72;;;7.06;100.00
64292;BME280;50628;51.008;13.658;2023-12-28T18:14:17;99547.00;;;7.01;100.00
64292;BME280;50628;51.008;13.658;2023-12-28T18:19:21;99544.41;;;7.01;100.00
64292;BME280;50628;51.008;13.658;2023-12-28T18:24:24;99551.63;;;7.08;100.00
64292;BME280;50628;51.008;13.658;2023-12-28T18:29:26;99546.13;;;7.00;100.00
64292;BME280;50628;51.008;13.658;2023-12-28T18:34:28;99541.97;;;7.10;100.00
64292;BME280;50628;51.008;13.658;2023-12-28T18:39:31;99545.19;;;7.14;100.00
64292;BME280;50628;51.008;13.658;2023-12-28T18:44:37;99559.28;;;7.10;100.00
64292;BME280;50628;51.008;13.658;2023-12-28T18:49:39;99556.47;;;7.13;100.00
64292;BME280;50628;51.008;13.658;2023-12-28T18:54:43;99553.69;;;7.16;100.00
64292;BME280;50628;51.008;13.658;2023-12-28T18:59:44;99547.34;;;7.20;100.00
64292;BME280;50628;51.008;13.658;2023-12-28T19:04:47;99540.81;;;7.27;100.00
64292;BME280;50628;51.008;13.658;2023-12-28T19:09:51;99537.38;;;7.40;100.00
64292;BME280;50628;51.008;13.658;2023-12-28T19:14:54;99544.91;;;7.43;100.00
64292;BME280;50628;51.008;13.658;2023-12-28T19:19:56;99535.38;;;7.43;100.00
64292;BME280;50628;51.008;13.658;2023-12-28T19:24:59;99539.34;;;7.60;100.00
64292;BME280;50628;51.008;13.658;2023-12-28T19:30:03;99537.41;;;7.64;100.00
64292;BME280;50628;51.008;13.658;2023-12-28T19:35:09;99539.53;;;7.70;100.00
64292;BME280;50628;51.008;13.658;2023-12-28T19:40:14;99529.56;;;7.76;100.00
64292;BME280;50628;51.008;13.658;2023-12-28T19:45:18;99530.94;;;7.69;100.00
64292;BME280;50628;51.008;13.658;2023-12-28T19:50:20;99521.78;;;7.76;100.00
64292;BME280;50628;51.008;13.658;2023-12-28T19:55:23;99521.91;;;7.75;100.00
64292;BME280;50628;51.008;13.658;2023-12-28T20:00:26;99518.22;;;7.66;100.00
64292;BME280;50628;51.008;13.658;2023-12-28T20:05:28;99520.56;;;7.69;100.00
64292;BME280;50628;51.008;13.658;2023-12-28T20:10:31;99518.47;;;7.74;100.00
64292;BME280;50628;51.008;13.658;2023-12-28T20:15:33;99520.94;;;7.76;100.00
64292;BME280;50628;51.008;13.658;2023-12-28T20:20:35;99508.72;;;7.78;100.00
64292;BME280;50628;51.008;13.658;2023-12-28T20:25:38;99507.88;;;7.77;100.00
64292;BME280;50628;51.008;13.658;2023-12-28T20:30:40;99507.44;;;7.84;100.00
64292;BME280;50628;51.008;13.658;2023-12-28T20:35:42;99517.31;;;7.78;100.00
64292;BME280;50628;51.008;13.658;2023-12-28T20:40:47;99510.72;;;7.74;100.00
64292;BME280;50628;51.008;13.658;2023-12-28T20:45:49;99504.47;;;7.77;100.00
64292;BME280;50628;51.008;13.658;2023-12-28T20:50:52;99496.81;;;7.75;100.00
64292;BME280;50628;51.008;13.658;2023-12-28T20:55:55;99493.72;;;7.70;100.00
64292;BME280;50628;51.008;13.658;2023-12-28T21:00:59;99502.78;;;7.65;100.00
64292;BME280;50628;51.008;13.658;2023-12-28T21:06:01;99514.56;;;7.69;100.00
64292;BME280;50628;51.008;13.658;2023-12-28T21:11:04;99502.50;;;7.56;100.00
64292;BME280;50628;51.008;13.658;2023-12-28T21:16:06;99502.06;;;7.63;100.00
64292;BME280;50628;51.008;13.658;2023-12-28T21:21:08;99511.19;;;7.55;100.00
64292;BME280;50628;51.008;13.658;2023-12-28T21:26:11;99505.69;;;7.60;100.00
64292;BME280;50628;51.008;13.658;2023-12-28T21:31:13;99505.91;;;7.57;100.00
64292;BME280;50628;51.008;13.658;2023-12-28T21:36:16;99501.47;;;7.59;100.00
64292;BME280;50628;51.008;13.658;2023-12-28T21:41:19;99499.69;;;7.59;100.00
64292;BME280;50628;51.008;13.658;2023-12-28T21:46:21;99498.09;;;7.70;100.00
64292;BME280;50628;51.008;13.658;2023-12-28T21:51:23;99501.00;;;7.65;100.00
64292;BME280;50628;51.008;13.658;2023-12-28T21:56:27;99505.84;;;7.70;100.00
64292;BME280;50628;51.008;13.658;2023-12-28T22:01:29;99519.41;;;7.73;100.00
64292;BME280;50628;51.008;13.658;2023-12-28T22:06:31;99517.25;;;7.43;100.00
64292;BME280;50628;51.008;13.658;2023-12-28T22:11:34;99523.16;;;7.45;100.00
64292;BME280;50628;51.008;13.658;2023-12-28T22:16:36;99516.25;;;7.33;100.00
64292;BME280;50628;51.008;13.658;2023-12-28T22:21:38;99509.88;;;7.26;100.00
64292;BME280;50628;51.008;13.658;2023-12-28T22:26:41;99508.47;;;7.33;100.00
64292;BME280;50628;51.008;13.658;2023-12-28T22:31:45;99506.28;;;7.40;100.00
64292;BME280;50628;51.008;13.658;2023-12-28T22:36:48;99502.88;;;7.39;100.00
64292;BME280;50628;51.008;13.658;2023-12-28T22:41:51;99498.06;;;7.46;100.00
64292;BME280;50628;51.008;13.658;2023-12-28T22:46:53;99500.66;;;7.46;100.00
64292;BME280;50628;51.008;13.658;2023-12-28T22:51:55;99491.97;;;7.47;100.00
64292;BME280;50628;51.008;13.658;2023-12-28T22:56:58;99488.13;;;7.52;100.00
64292;BME280;50628;51.008;13.658;2023-12-28T23:02:00;99480.00;;;7.57;100.00
64292;BME280;50628;51.008;13.658;2023-12-28T23:07:02;99478.25;;;7.57;100.00
64292;BME280;50628;51.008;13.658;2023-12-28T23:12:05;99476.28;;;7.61;100.00
64292;BME280;50628;51.008;13.658;2023-12-28T23:17:07;99465.91;;;7.61;100.00
64292;BME280;50628;51.008;13.658;2023-12-28T23:22:09;99448.28;;;7.66;100.00
64292;BME280;50628;51.008;13.658;2023-12-28T23:27:12;99458.19;;;7.84;100.00
64292;BME280;50628;51.008;13.658;2023-12-28T23:32:14;99453.16;;;7.82;100.00
64292;BME280;50628;51.008;13.658;2023-12-28T23:37:16;99454.63;;;7.73;100.00
64292;BME280;50628;51.008;13.658;2023-12-28T23:42:19;99457.22;;;7.73;100.00
64292;BME280;50628;51.008;13.658;2023-12-28T23:47:21;99441.00;;;7.71;100.00
64292;BME280;50628;51.008;13.658;2023-12-28T23:52:23;99424.97;;;7.66;100.00
64292;BME280;50628;51.008;13.658;2023-12-28T23:57:26;99422.09;;;7.58;100.00
